Time;durP1;ratioP1;P1;durP2;ratioP2;P2;SDS_P1;SDS_P2;PMS_P1;PMS_P2;Temp;Humidity;BMP_temperature;BMP_pressure;BME280_temperature;BME280_humidity;BME280_pressure;Samples;Min_cycle;Max_cycle;Signal;HPM_P1;HPM_P2
2023/04/12 00:01:18;;;;;;;9.48;6.50;;;307.20;2304.00;;;;;;5050196;28;20502;-60
2023/04/12 00:03:49;;;;;;;14.60;10.70;;;307.20;2304.00;;;;;;5050069;28;20033;-60
2023/04/12 00:06:16;;;;;;;10.98;7.95;;;307.20;2304.00;;;;;;5049452;28;20513;-60
2023/04/12 00:08:45;;;;;;;9.45;6.43;;;307.30;2304.00;;;;;;5049874;28;20040;-61
2023/04/12 00:11:11;;;;;;;10.98;6.63;;;307.30;2304.00;;;;;;5049825;28;20024;-60
2023/04/12 00:13:37;;;;;;;14.10;10.23;;;307.30;2304.00;;;;;;5050236;28;20021;-59
2023/04/12 00:16:03;;;;;;;58.22;52.30;;;307.30;2304.00;;;;;;5036730;28;20132;-60
2023/04/12 00:18:29;;;;;;;13.15;7.90;;;307.50;2304.00;;;;;;5049384;28;20501;-61
2023/04/12 00:20:55;;;;;;;11.48;8.27;;;307.50;2304.00;;;;;;5049366;28;20779;-60
2023/04/12 00:23:20;;;;;;;14.52;12.65;;;307.30;2304.00;;;;;;5049683;28;20021;-61
2023/04/12 00:25:46;;;;;;;9.40;6.15;;;307.30;2304.00;;;;;;5049640;28;20032;-61
2023/04/12 00:28:13;;;;;;;10.93;6.55;;;282.50;2278.40;;;;;;5049652;28;20037;-61
2023/04/12 00:30:40;;;;;;;10.32;7.78;;;282.50;2278.40;;;;;;5049542;28;20029;-61
2023/04/12 00:33:06;;;;;;;8.35;5.82;;;282.50;2278.40;;;;;;5049725;28;20060;-61
2023/04/12 00:35:31;;;;;;;28.05;20.15;;;282.30;2278.40;;;;;;5048850;28;20431;-61
2023/04/12 00:37:57;;;;;;;13.48;8.45;;;282.30;2278.40;;;;;;5050065;28;20498;-59
2023/04/12 00:40:23;;;;;;;9.98;7.50;;;282.30;2278.40;;;;;;5048812;28;20094;-60
2023/04/12 00:42:49;;;;;;;9.45;6.43;;;282.30;2278.40;;;;;;5049262;28;20021;-60
2023/04/12 00:45:15;;;;;;;10.57;6.35;;;282.20;2278.40;;;;;;5049102;28;20021;-59
2023/04/12 00:47:43;;;;;;;10.43;6.15;;;282.10;2278.40;;;;;;5048229;28;20041;-60
2023/04/12 00:50:10;;;;;;;9.10;6.45;;;282.20;2278.40;;;;;;5048706;28;20025;-60
2023/04/12 00:52:37;;;;;;;10.95;6.75;;;282.10;2278.40;;;;;;5049485;28;20494;-60
2023/04/12 00:55:03;;;;;;;8.63;6.00;;;282.10;2278.40;;;;;;5049127;28;20036;-60
2023/04/12 00:57:37;;;;;;;8.52;6.20;;;282.10;2278.40;;;;;;5049131;28;20069;-60
2023/04/12 01:00:10;;;;;;;10.40;6.22;;;282.10;2278.40;;;;;;5049109;28;20017;-59
2023/04/12 01:02:37;;;;;;;9.10;6.32;;;282.20;2278.40;;;;;;5048950;28;20564;-60
2023/04/12 01:05:06;;;;;;;10.13;7.05;;;282.20;2278.40;;;;;;5049117;28;20033;-60
2023/04/12 01:07:55;;;;;;;15.05;10.20;;;282.10;2278.40;;;;;;5048904;28;20037;-60
2023/04/12 01:10:23;;;;;;;19.20;15.65;;;282.10;2278.40;;;;;;5025878;28;20416;-60
2023/04/12 01:13:08;;;;;;;12.98;9.95;;;282.00;2278.40;;;;;;5048876;28;20397;-60
2023/04/12 01:15:39;;;;;;;12.18;8.25;;;282.10;2278.40;;;;;;5049420;28;20029;-59
2023/04/12 01:18:13;;;;;;;10.80;8.30;;;282.10;2278.40;;;;;;5049089;28;20032;-60
2023/04/12 01:20:52;;;;;;;9.70;7.75;;;282.00;2278.40;;;;;;5049146;28;20047;-60
2023/04/12 01:23:52;;;;;;;9.48;7.20;;;282.00;2278.40;;;;;;5017582;28;20026;-60
2023/04/12 01:26:46;;;;;;;10.27;7.10;;;282.10;2278.40;;;;;;5048826;28;20466;-60
2023/04/12 01:29:14;;;;;;;;;;;282.10;2278.40;;;;;;5035423;28;20044;-60
2023/04/12 01:31:52;;;;;;;27.95;19.23;;;282.10;2278.40;;;;;;5050579;28;19948;-60
2023/04/12 01:34:19;;;;;;;21.98;14.57;;;282.10;2278.40;;;;;;5052523;28;20240;-60
2023/04/12 01:36:47;;;;;;;20.33;14.15;;;282.10;2278.40;;;;;;5053457;28;20033;-59
2023/04/12 01:39:12;;;;;;;10.25;7.28;;;282.20;2278.40;;;;;;5052818;28;20045;-59
2023/04/12 01:41:44;;;;;;;16.45;10.75;;;282.10;2278.40;;;;;;5052961;28;20039;-59
2023/04/12 01:44:13;;;;;;;15.65;10.85;;;282.10;2278.40;;;;;;5052521;28;20376;-59
2023/04/12 01:46:39;;;;;;;15.70;10.55;;;282.20;2278.40;;;;;;5052343;28;20029;-61
2023/04/12 01:49:05;;;;;;;33.28;21.25;;;282.20;2278.40;;;;;;5052435;28;20187;-59
2023/04/12 01:52:02;;;;;;;12.82;9.13;;;282.20;2278.40;;;;;;5052594;28;20032;-60
2023/04/12 01:54:32;;;;;;;33.58;21.00;;;282.10;2278.40;;;;;;5050283;28;20510;-60
2023/04/12 01:57:01;;;;;;;28.00;18.27;;;282.10;2278.40;;;;;;5050147;28;20372;-59
2023/04/12 01:59:35;;;;;;;20.02;11.95;;;282.10;2278.40;;;;;;5050305;28;20033;-60
2023/04/12 02:02:02;;;;;;;34.22;22.40;;;282.20;2278.40;;;;;;5023562;28;20028;-60
2023/04/12 02:04:28;;;;;;;12.50;8.90;;;282.20;2278.40;;;;;;5049592;28;20106;-60
2023/04/12 02:06:55;;;;;;;9.70;7.25;;;282.30;2278.40;;;;;;5049947;28;20021;-59
2023/04/12 02:09:21;;;;;;;9.52;6.28;;;282.20;2278.40;;;;;;5049571;28;20040;-60
2023/04/12 02:11:48;;;;;;;11.90;7.65;;;282.20;2278.40;;;;;;5050220;28;20060;-60
2023/04/12 02:14:14;;;;;;;13.15;7.50;;;282.20;2278.40;;;;;;5032585;28;20072;-61
2023/04/12 02:16:41;;;;;;;10.90;5.95;;;282.30;2278.40;;;;;;5049980;28;20025;-61
2023/04/12 02:19:07;;;;;;;9.15;6.78;;;282.30;2278.40;;;;;;5049668;28;20044;-60
2023/04/12 02:21:44;;;;;;;14.25;8.07;;;282.20;2278.40;;;;;;5050141;28;20036;-60
2023/04/12 02:24:11;;;;;;;10.25;6.63;;;282.10;2278.40;;;;;;5049446;28;20120;-61
2023/04/12 02:26:37;;;;;;;11.85;7.88;;;282.10;2278.40;;;;;;5050088;28;20031;-60
2023/04/12 02:29:07;;;;;;;9.88;6.85;;;282.10;2278.40;;;;;;5049804;28;20053;-59
2023/04/12 02:31:37;;;;;;;7.85;5.35;;;282.10;2278.40;;;;;;5051330;28;20483;-59
2023/04/12 02:34:03;;;;;;;9.48;5.80;;;282.10;2278.40;;;;;;5048176;28;20112;-60
2023/04/12 02:36:29;;;;;;;18.35;11.10;;;282.10;2278.40;;;;;;5042160;28;20476;-60
2023/04/12 02:38:55;;;;;;;12.23;8.30;;;282.10;2278.40;;;;;;5051893;28;20045;-59
2023/04/12 02:41:22;;;;;;;9.55;5.70;;;282.10;2278.40;;;;;;5051684;28;20031;-60
2023/04/12 02:43:48;;;;;;;7.28;5.25;;;282.00;2278.40;;;;;;5050866;28;20580;-61
2023/04/12 02:46:20;;;;;;;7.13;4.47;;;282.00;2278.40;;;;;;5052159;28;20036;-61
2023/04/12 02:48:46;;;;;;;11.40;7.57;;;282.00;2278.40;;;;;;5051573;28;20479;-60
2023/04/12 02:51:12;;;;;;;6.57;4.00;;;282.00;2278.40;;;;;;5051858;28;20032;-61
2023/04/12 02:53:37;;;;;;;10.07;6.72;;;282.10;2278.40;;;;;;5051369;28;20025;-61
2023/04/12 02:56:04;;;;;;;7.43;4.38;;;282.00;2278.40;;;;;;5051712;28;20028;-61
2023/04/12 02:58:32;;;;;;;9.65;5.05;;;282.00;2278.40;;;;;;5051148;28;20029;-61
2023/04/12 03:00:58;;;;;;;14.30;8.88;;;282.00;2278.40;;;;;;5051225;28;20032;-60
2023/04/12 03:03:25;;;;;;;13.18;7.32;;;282.10;2278.40;;;;;;5051041;28;20075;-60
2023/04/12 03:05:52;;;;;;;49.42;36.08;;;282.10;2278.40;;;;;;5051297;28;20028;-61
2023/04/12 03:08:18;;;;;;;14.13;9.20;;;282.10;2278.40;;;;;;5050883;28;20045;-59
2023/04/12 03:10:43;;;;;;;16.83;10.75;;;282.20;2278.40;;;;;;5051527;28;20040;-59
2023/04/12 03:13:10;;;;;;;11.63;7.35;;;282.20;2278.40;;;;;;5050693;28;20029;-60
2023/04/12 03:15:35;;;;;;;13.30;7.57;;;282.10;2278.40;;;;;;5039839;28;20021;-60
2023/04/12 03:18:01;;;;;;;8.45;5.35;;;282.10;2278.40;;;;;;5049338;28;20407;-58
2023/04/12 03:20:27;;;;;;;5.80;3.13;;;282.20;2278.40;;;;;;5051278;28;20772;-61
2023/04/12 03:22:53;;;;;;;3.72;2.50;;;282.30;2278.40;;;;;;5050653;28;20048;-60
2023/04/12 03:25:19;;;;;;;5.57;3.80;;;282.20;2278.40;;;;;;5039320;28;20124;-59
2023/04/12 03:27:45;;;;;;;6.25;4.03;;;282.20;2278.40;;;;;;5049163;28;20029;-59
2023/04/12 03:30:11;;;;;;;7.15;5.07;;;282.20;2278.40;;;;;;5050838;28;20071;-60
2023/04/12 03:32:41;;;;;;;7.45;4.35;;;282.10;2278.40;;;;;;5050623;28;20424;-59
2023/04/12 03:35:08;;;;;;;7.43;3.05;;;282.00;2278.40;;;;;;5050892;28;20419;-59
2023/04/12 03:37:34;;;;;;;5.10;3.67;;;281.80;2278.40;;;;;;5050750;28;20017;-60
2023/04/12 03:40:00;;;;;;;8.18;5.22;;;281.80;2278.40;;;;;;5050546;28;20095;-60
2023/04/12 03:42:27;;;;;;;4.75;3.10;;;281.70;2278.40;;;;;;5050344;28;20037;-59
2023/04/12 03:44:53;;;;;;;6.18;4.80;;;281.70;2278.40;;;;;;5046580;28;20029;-60
2023/04/12 03:47:19;;;;;;;4.28;2.63;;;281.60;2278.40;;;;;;5042054;28;20029;-60
2023/04/12 03:49:46;;;;;;;5.35;3.30;;;281.70;2278.40;;;;;;5050231;28;20017;-59
2023/04/12 03:52:12;;;;;;;6.43;4.10;;;281.70;2278.40;;;;;;5032844;28;20025;-60
2023/04/12 03:54:39;;;;;;;5.10;2.60;;;281.70;2278.40;;;;;;5030116;28;20685;-60
2023/04/12 03:57:05;;;;;;;6.20;4.20;;;281.70;2278.40;;;;;;5035334;28;20383;-59
2023/04/12 03:59:31;;;;;;;5.40;3.60;;;281.60;2278.40;;;;;;5038477;28;20109;-60
2023/04/12 04:01:59;;;;;;;5.03;3.13;;;281.70;2278.40;;;;;;5028932;28;20324;-60
2023/04/12 04:04:28;;;;;;;11.68;5.80;;;281.70;2278.40;;;;;;5030649;28;20032;-59
2023/04/12 04:06:54;;;;;;;5.60;2.80;;;281.70;2278.40;;;;;;5030330;28;20502;-60
2023/04/12 04:09:20;;;;;;;5.80;3.15;;;281.70;2278.40;;;;;;5043213;28;20064;-60
2023/04/12 04:11:46;;;;;;;4.32;2.40;;;281.70;2278.40;;;;;;5036928;28;20017;-60
2023/04/12 04:14:12;;;;;;;4.18;2.55;;;281.60;2278.40;;;;;;5050078;28;20028;-59
2023/04/12 04:16:38;;;;;;;4.65;2.33;;;281.70;2278.40;;;;;;5049879;28;20218;-59
2023/04/12 04:19:04;;;;;;;4.70;3.28;;;281.80;2278.40;;;;;;5049444;28;20551;-59
2023/04/12 04:21:31;;;;;;;4.47;2.47;;;281.80;2278.40;;;;;;5034679;28;20033;-60
2023/04/12 04:24:00;;;;;;;5.25;2.70;;;281.70;2278.40;;;;;;5050144;28;20021;-60
2023/04/12 04:26:37;;;;;;;4.47;2.42;;;281.80;2278.40;;;;;;5049427;28;20028;-60
2023/04/12 04:29:03;;;;;;;4.30;2.80;;;281.80;2278.40;;;;;;5049422;28;20121;-59
2023/04/12 04:31:36;;;;;;;4.95;2.42;;;281.70;2278.40;;;;;;5049867;28;20021;-60
2023/04/12 04:34:05;;;;;;;3.60;2.42;;;281.90;2278.40;;;;;;5049379;28;20037;-60
2023/04/12 04:36:35;;;;;;;6.82;3.67;;;281.80;2278.40;;;;;;5049590;28;20480;-60
2023/04/12 04:39:03;;;;;;;5.82;4.50;;;281.80;2278.40;;;;;;5047547;28;20031;-61
2023/04/12 04:41:33;;;;;;;4.85;2.80;;;281.70;2278.40;;;;;;5028229;28;20106;-59
2023/04/12 04:43:59;;;;;;;7.13;2.95;;;281.80;2278.40;;;;;;5034844;28;20025;-58
2023/04/12 04:46:25;;;;;;;4.68;2.78;;;281.80;2278.40;;;;;;5043430;28;20371;-59
2023/04/12 04:48:50;;;;;;;5.22;2.70;;;281.80;2278.40;;;;;;5048978;28;20037;-60
2023/04/12 04:51:17;;;;;;;3.83;2.15;;;281.70;2278.40;;;;;;5049118;28;20462;-59
2023/04/12 04:53:42;;;;;;;3.58;2.28;;;281.80;2278.40;;;;;;5047866;28;20040;-58
2023/04/12 04:56:09;;;;;;;6.70;3.88;;;281.70;2278.40;;;;;;5048432;28;20055;-60
2023/04/12 04:58:35;;;;;;;8.88;5.18;;;281.90;2278.40;;;;;;5047599;28;20020;-59
2023/04/12 05:01:02;;;;;;;5.38;3.75;;;281.90;2278.40;;;;;;5046179;28;20050;-60
2023/04/12 05:03:28;;;;;;;7.30;3.85;;;282.10;2278.40;;;;;;5048558;28;20810;-60
2023/04/12 05:05:55;;;;;;;6.47;3.80;;;282.20;2278.40;;;;;;5048098;28;20044;-60
2023/04/12 05:08:21;;;;;;;7.03;3.67;;;358.80;2329.60;;;;;;5047271;28;20086;-60
2023/04/12 05:10:54;;;;;;;5.60;2.78;;;410.30;2201.60;;;;;;5048420;28;20029;-60
2023/04/12 05:13:21;;;;;;;8.23;4.82;;;461.20;1971.20;;;;;;5049292;28;20025;-61
2023/04/12 05:15:47;;;;;;;5.05;3.38;;;512.10;1792.00;;;;;;5049405;28;20387;-60
2023/04/12 05:18:13;;;;;;;6.45;3.33;;;538.00;1689.60;;;;;;5048840;28;20481;-61
2023/04/12 05:20:40;;;;;;;5.47;3.85;;;563.30;1664.00;;;;;;5049007;28;20486;-61
2023/04/12 05:23:05;;;;;;;6.75;3.95;;;563.70;1612.80;;;;;;5048829;28;20116;-61
2023/04/12 05:25:32;;;;;;;5.28;3.55;;;564.10;1561.60;;;;;;5048920;28;20132;-60
2023/04/12 05:27:58;;;;;;;5.05;3.70;;;;;;;;;;5048565;28;20056;-60
2023/04/12 05:30:24;;;;;;;5.38;3.63;;;;;;;;;;5048955;28;20025;-60
2023/04/12 05:32:50;;;;;;;5.07;3.58;;;589.60;1484.80;;;;;;5048693;28;20028;-61
2023/04/12 05:35:15;;;;;;;4.88;3.60;;;614.60;1433.60;;;;;;5049029;28;20025;-60
2023/04/12 05:37:41;;;;;;;5.53;3.78;;;615.00;1408.00;;;;;;5048655;28;20075;-61
2023/04/12 05:40:08;;;;;;;5.47;3.83;;;615.10;1382.40;;;;;;5048794;28;20102;-60
2023/04/12 05:42:38;;;;;;;5.65;3.65;;;640.20;1356.80;;;;;;5042528;28;20053;-61
2023/04/12 05:45:05;;;;;;;37.90;16.52;;;666.00;1331.20;;;;;;5042730;28;20025;-60
2023/04/12 05:47:30;;;;;;;12.35;8.70;;;666.20;1280.00;;;;;;5048822;28;20021;-61
2023/04/12 05:49:56;;;;;;;16.92;14.13;;;666.50;1254.40;;;;;;5048160;28;20025;-70
2023/04/12 05:52:22;;;;;;;5.18;4.53;;;716.90;1228.80;;;;;;5048915;28;20017;-68
2023/04/12 05:54:47;;;;;;;8.15;6.38;;;691.70;1228.80;;;;;;5048228;28;20241;-68
2023/04/12 05:57:14;;;;;;;26.40;22.25;;;716.90;1203.20;;;;;;5048970;28;20025;-67
2023/04/12 05:59:40;;;;;;;13.90;7.70;;;691.90;1203.20;;;;;;5048272;28;20422;-70
2023/04/12 06:02:06;;;;;;;37.33;29.90;;;716.90;1203.20;;;;;;5048917;28;20032;-68
2023/04/12 06:04:32;;;;;;;6.63;5.90;;;717.40;1152.00;;;;;;5048379;28;20037;-70
2023/04/12 06:06:58;;;;;;;4.90;4.40;;;717.50;1152.00;;;;;;5048519;28;20033;-65
2023/04/12 06:09:23;;;;;;;5.32;4.57;;;691.70;1177.60;;;;;;5037201;28;20033;-68
2023/04/12 06:11:51;;;;;;;6.65;6.05;;;691.80;1152.00;;;;;;5040823;28;20021;-68
2023/04/12 06:14:16;;;;;;;6.18;5.57;;;717.50;1126.40;;;;;;5048512;28;20522;-68
2023/04/12 06:16:42;;;;;;;7.95;7.22;;;692.00;1152.00;;;;;;5048791;28;20052;-67
2023/04/12 06:19:09;;;;;;;7.80;7.10;;;742.50;1152.00;;;;;;5051590;28;20215;-68
2023/04/12 06:21:35;;;;;;;6.68;5.88;;;743.00;1126.40;;;;;;5052604;28;20577;-67
2023/04/12 06:24:01;;;;;;;7.63;6.88;;;743.00;1100.80;;;;;;5044803;28;20128;-69
2023/04/12 06:26:26;;;;;;;6.95;6.30;;;768.00;1075.20;;;;;;5032329;28;20026;-66
2023/04/12 06:28:52;;;;;;;6.57;5.95;;;743.30;1075.20;;;;;;5032006;28;20040;-70
2023/04/12 06:31:18;;;;;;;6.65;6.05;;;743.10;1100.80;;;;;;5041469;28;20411;-69
2023/04/12 06:33:43;;;;;;;6.53;5.93;;;768.30;1075.20;;;;;;5051699;28;20037;-69
2023/04/12 06:36:10;;;;;;;7.13;6.50;;;743.00;1100.80;;;;;;5039239;28;20033;-69
2023/04/12 06:38:36;;;;;;;7.32;6.65;;;793.80;1049.60;;;;;;5038572;28;20029;-70
2023/04/12 06:41:01;;;;;;;10.13;9.15;;;794.30;1049.60;;;;;;5051413;28;20124;-70
2023/04/12 06:43:27;;;;;;;8.48;7.78;;;819.90;998.40;;;;;;5051641;28;20071;-69
2023/04/12 06:45:55;;;;;;;7.82;7.22;;;794.50;1049.60;;;;;;5034688;28;20421;-69
2023/04/12 06:48:21;;;;;;;10.05;9.07;;;819.50;1024.00;;;;;;5031701;28;20116;-70
2023/04/12 06:50:47;;;;;;;8.63;7.93;;;845.00;1024.00;;;;;;5031527;28;20117;-70
2023/04/12 06:53:13;;;;;;;9.50;6.38;;;845.10;972.80;;;;;;5018989;28;20511;-70
2023/04/12 06:55:39;;;;;;;5.68;5.18;;;845.40;972.80;;;;;;5031471;28;20041;-70
2023/04/12 06:58:05;;;;;;;10.93;9.93;;;819.60;972.80;;;;;;5036387;28;20083;-69
2023/04/12 07:00:31;;;;;;;6.00;5.53;;;794.10;1024.00;;;;;;5051422;28;20049;-69
2023/04/12 07:02:57;;;;;;;6.93;6.38;;;794.20;1024.00;;;;;;5050846;28;20090;-69
2023/04/12 07:05:22;;;;;;;10.23;9.20;;;768.30;1024.00;;;;;;5048451;28;20036;-69
2023/04/12 07:07:48;;;;;;;7.68;6.63;;;768.80;1024.00;;;;;;5031449;28;20041;-68
2023/04/12 07:10:14;;;;;;;7.47;6.78;;;768.90;1024.00;;;;;;5031558;28;20017;-69
2023/04/12 07:12:40;;;;;;;7.90;7.13;;;794.20;1024.00;;;;;;5031215;28;20383;-69
2023/04/12 07:15:07;;;;;;;9.82;8.90;;;794.40;1024.00;;;;;;5031283;28;20464;-69
2023/04/12 07:17:33;;;;;;;6.25;5.72;;;768.70;1024.00;;;;;;5031643;28;20383;-69
2023/04/12 07:19:59;;;;;;;10.70;9.02;;;768.80;998.40;;;;;;5045131;28;20020;-70
2023/04/12 07:22:24;;;;;;;10.70;9.07;;;794.20;972.80;;;;;;5051235;28;20060;-69
2023/04/12 07:24:50;;;;;;;6.40;5.72;;;768.90;972.80;;;;;;5050764;28;20023;-70
2023/04/12 07:27:16;;;;;;;6.00;5.38;;;794.00;998.40;;;;;;5050744;28;20119;-69
2023/04/12 07:29:42;;;;;;;19.85;17.15;;;819.60;972.80;;;;;;5050940;28;20045;-70
2023/04/12 07:32:09;;;;;;;6.85;6.18;;;819.30;972.80;;;;;;5050886;28;20032;-70
2023/04/12 07:34:35;;;;;;;12.68;11.40;;;870.60;921.60;;;;;;5051065;28;20483;-69
2023/04/12 07:37:01;;;;;;;7.72;7.00;;;845.40;947.20;;;;;;5050652;28;20352;-70
2023/04/12 07:39:30;;;;;;;6.03;5.53;;;870.90;896.00;;;;;;5050614;28;20041;-69
2023/04/12 07:41:56;;;;;;;18.83;16.95;;;870.50;896.00;;;;;;5050566;28;20028;-70
2023/04/12 07:44:22;;;;;;;20.15;18.25;;;844.90;921.60;;;;;;5050478;28;20024;-69
2023/04/12 07:46:47;;;;;;;14.82;13.57;;;845.20;921.60;;;;;;5050539;28;20116;-69
2023/04/12 07:49:13;;;;;;;13.15;11.93;;;819.70;896.00;;;;;;5050375;28;20035;-71
2023/04/12 07:51:39;;;;;;;11.23;10.10;;;845.30;896.00;;;;;;5050132;28;20447;-71
2023/04/12 07:54:05;;;;;;;12.30;10.65;;;845.50;896.00;;;;;;5050513;28;20036;-69
2023/04/12 07:56:34;;;;;;;7.82;7.13;;;820.10;870.40;;;;;;5050218;28;20021;-69
2023/04/12 07:59:00;;;;;;;6.05;5.55;;;819.70;896.00;;;;;;5050225;28;20033;-70
2023/04/12 08:01:25;;;;;;;8.35;7.65;;;819.30;921.60;;;;;;5050546;28;20121;-70
2023/04/12 08:03:51;;;;;;;9.45;8.35;;;819.80;896.00;;;;;;5050049;28;20029;-71
2023/04/12 08:06:17;;;;;;;8.27;7.38;;;820.10;896.00;;;;;;5050263;28;20021;-69
2023/04/12 08:08:43;;;;;;;9.52;5.50;;;845.70;870.40;;;;;;5050173;28;20036;-70
2023/04/12 08:11:09;;;;;;;5.70;4.90;;;794.20;921.60;;;;;;5049525;28;20475;-72
2023/04/12 08:13:35;;;;;;;12.63;11.25;;;768.70;947.20;;;;;;5050080;28;20467;-68
2023/04/12 08:16:01;;;;;;;10.02;7.57;;;768.90;921.60;;;;;;5049727;28;20028;-69
2023/04/12 08:18:28;;;;;;;34.95;31.35;;;794.00;921.60;;;;;;5050166;28;20538;-70
2023/04/12 08:20:55;;;;;;;5.90;5.20;;;794.40;947.20;;;;;;5050086;28;20104;-70
2023/04/12 08:23:21;;;;;;;7.22;6.53;;;794.40;921.60;;;;;;5049841;28;20371;-69
2023/04/12 08:25:47;;;;;;;6.97;6.20;;;794.20;896.00;;;;;;5049963;28;20418;-70
2023/04/12 08:28:12;;;;;;;6.07;5.53;;;819.30;896.00;;;;;;5049708;28;20032;-68
2023/04/12 08:30:38;;;;;;;8.63;7.93;;;794.40;896.00;;;;;;5049488;28;20475;-71
2023/04/12 08:33:04;;;;;;;9.23;8.32;;;768.50;921.60;;;;;;5050045;28;20065;-72
2023/04/12 08:35:30;;;;;;;11.10;9.75;;;768.20;947.20;;;;;;5049260;28;20530;-69
2023/04/12 08:37:56;;;;;;;4.72;3.63;;;743.10;972.80;;;;;;5050078;28;20027;-69
2023/04/12 08:40:22;;;;;;;4.80;4.40;;;743.20;972.80;;;;;;5048876;28;20036;-70
2023/04/12 08:42:47;;;;;;;4.07;3.67;;;742.40;972.80;;;;;;5049271;28;20060;-69
2023/04/12 08:45:13;;;;;;;4.63;4.03;;;716.90;998.40;;;;;;5049126;28;20017;-67
2023/04/12 08:47:43;;;;;;;6.10;5.07;;;666.40;1049.60;;;;;;5049601;28;20112;-68
2023/04/12 08:50:12;;;;;;;3.90;3.22;;;615.30;1049.60;;;;;;5049150;28;20029;-68
2023/04/12 08:52:39;;;;;;;4.63;3.40;;;563.90;1152.00;;;;;;5049567;28;20217;-68
2023/04/12 08:55:06;;;;;;;11.13;8.57;;;538.10;1203.20;;;;;;5049815;28;20074;-68
2023/04/12 08:57:34;;;;;;;6.15;4.88;;;512.90;1177.60;;;;;;5049214;28;20371;-68
2023/04/12 09:00:02;;;;;;;5.55;3.88;;;512.40;1228.80;;;;;;5048974;28;20089;-67
2023/04/12 09:02:28;;;;;;;4.93;3.08;;;512.10;1280.00;;;;;;5049351;28;20373;-67
2023/04/12 09:04:53;;;;;;;8.65;5.68;;;487.30;1305.60;;;;;;5048795;28;20079;-67
2023/04/12 09:07:26;;;;;;;8.27;4.25;;;487.30;1280.00;;;;;;5049364;28;20025;-68
2023/04/12 09:09:52;;;;;;;4.57;3.53;;;487.00;1280.00;;;;;;5048524;28;20067;-68
2023/04/12 09:12:21;;;;;;;4.93;3.38;;;487.10;1280.00;;;;;;5049287;28;20025;-68
2023/04/12 09:14:47;;;;;;;6.13;2.97;;;487.10;1254.40;;;;;;5048644;28;20374;-68
2023/04/12 09:17:23;;;;;;;6.60;4.22;;;486.90;1280.00;;;;;;5049223;28;20108;-68
2023/04/12 09:19:49;;;;;;;8.68;6.00;;;486.90;1305.60;;;;;;5048499;28;20025;-70
2023/04/12 09:22:15;;;;;;;8.77;6.40;;;461.70;1305.60;;;;;;5049133;28;20098;-67
2023/04/12 09:24:52;;;;;;;7.13;4.97;;;461.70;1305.60;;;;;;5048531;28;20462;-69
2023/04/12 09:27:21;;;;;;;5.03;3.40;;;486.40;1305.60;;;;;;5048509;28;20037;-68
2023/04/12 09:29:50;;;;;;;4.70;2.30;;;486.40;1305.60;;;;;;5048973;28;20029;-70
2023/04/12 09:32:28;;;;;;;6.00;3.42;;;461.50;1305.60;;;;;;5048748;28;20495;-70
2023/04/12 09:34:56;;;;;;;3.78;3.00;;;486.40;1331.20;;;;;;5049172;28;20083;-69
2023/04/12 09:37:22;;;;;;;6.53;3.00;;;461.70;1305.60;;;;;;5048496;28;20092;-69
2023/04/12 09:40:00;;;;;;;4.07;2.70;;;461.50;1305.60;;;;;;5038172;28;20056;-69
2023/04/12 09:42:25;;;;;;;9.43;8.07;;;486.40;1305.60;;;;;;5047771;28;20485;-69
2023/04/12 09:44:53;;;;;;;6.07;3.10;;;461.40;1280.00;;;;;;5048853;28;20025;-69
2023/04/12 09:47:19;;;;;;;4.80;3.42;;;486.40;1305.60;;;;;;5048626;28;20107;-70
2023/04/12 09:49:45;;;;;;;3.20;2.20;;;461.60;1331.20;;;;;;5048753;28;20432;-68
2023/04/12 09:52:13;;;;;;;3.60;2.08;;;461.50;1331.20;;;;;;5048958;28;20052;-69
2023/04/12 09:54:49;;;;;;;5.63;3.20;;;461.50;1305.60;;;;;;5052834;28;20064;-70
2023/04/12 09:57:20;;;;;;;9.40;2.50;;;486.40;1331.20;;;;;;5027995;28;20029;-69
2023/04/12 09:59:48;;;;;;;11.27;4.57;;;486.40;1305.60;;;;;;5050882;28;20078;-69
2023/04/12 10:02:15;;;;;;;3.30;2.00;;;486.40;1305.60;;;;;;5041170;28;20116;-69
2023/04/12 10:04:42;;;;;;;7.15;2.28;;;486.50;1305.60;;;;;;5052339;28;20025;-69
2023/04/12 10:07:08;;;;;;;6.95;4.47;;;486.60;1305.60;;;;;;5052364;28;20025;-70
2023/04/12 10:09:36;;;;;;;6.40;3.55;;;486.70;1305.60;;;;;;5052231;28;20037;-66
2023/04/12 10:12:02;;;;;;;5.05;3.03;;;486.60;1280.00;;;;;;5052596;28;20020;-68
2023/04/12 10:14:29;;;;;;;4.50;2.45;;;461.50;1280.00;;;;;;5052241;28;20698;-69
2023/04/12 10:16:59;;;;;;;4.78;3.30;;;486.40;1305.60;;;;;;5052205;28;20371;-68
2023/04/12 10:19:27;;;;;;;3.75;2.08;;;486.60;1305.60;;;;;;5052281;28;20470;-68
2023/04/12 10:21:54;;;;;;;5.75;2.63;;;487.00;1280.00;;;;;;5052371;28;20056;-68
2023/04/12 10:24:22;;;;;;;4.75;1.85;;;486.80;1331.20;;;;;;5038881;28;20009;-68
2023/04/12 10:26:49;;;;;;;7.05;3.55;;;461.70;1331.20;;;;;;5052569;28;20032;-67
2023/04/12 10:29:28;;;;;;;4.97;2.95;;;461.70;1331.20;;;;;;5051978;28;20029;-68
2023/04/12 10:31:56;;;;;;;2.95;1.80;;;461.60;1305.60;;;;;;5052168;28;20021;-67
2023/04/12 10:34:29;;;;;;;6.05;3.75;;;461.40;1280.00;;;;;;5051828;28;20032;-67
2023/04/12 10:36:56;;;;;;;12.70;8.23;;;461.50;1305.60;;;;;;5052160;28;20039;-68
2023/04/12 10:39:41;;;;;;;4.88;2.88;;;461.50;1280.00;;;;;;5051615;28;20041;-73
2023/04/12 10:42:23;;;;;;;3.05;2.00;;;461.30;1280.00;;;;;;5052564;28;20445;-68
2023/04/12 10:44:54;;;;;;;2.40;1.50;;;461.40;1356.80;;;;;;5051909;28;20060;-65
2023/04/12 10:47:47;;;;;;;3.53;2.53;;;461.20;1280.00;;;;;;5032081;28;20075;-66
2023/04/12 10:50:28;;;;;;;3.60;2.30;;;461.50;1305.60;;;;;;5048194;28;20036;-68
2023/04/12 10:53:12;;;;;;;5.82;2.33;;;461.20;1280.00;;;;;;5051527;28;20029;-67
2023/04/12 10:55:43;;;;;;;5.82;2.85;;;461.20;1305.60;;;;;;5026978;28;20021;-68
2023/04/12 10:58:09;;;;;;;5.55;3.55;;;461.30;1305.60;;;;;;5051243;28;20032;-68
2023/04/12 11:00:57;;;;;;;11.57;7.35;;;461.20;1280.00;;;;;;5051611;28;20501;-67
2023/04/12 11:03:24;;;;;;;6.97;4.22;;;461.30;1305.60;;;;;;5050640;28;20029;-67
2023/04/12 11:06:16;;;;;;;11.98;8.25;;;461.30;1305.60;;;;;;5039861;28;20056;-66
2023/04/12 11:08:42;;;;;;;18.75;10.90;;;461.20;1305.60;;;;;;5030256;28;20509;-68
2023/04/12 11:11:20;;;;;;;7.88;4.05;;;461.40;1305.60;;;;;;5051056;28;20048;-68
2023/04/12 11:13:45;;;;;;;4.68;3.17;;;461.30;1305.60;;;;;;5051173;28;20029;-67
2023/04/12 11:16:14;;;;;;;5.57;2.50;;;461.20;1305.60;;;;;;5050935;28;20382;-68
2023/04/12 11:18:40;;;;;;;3.22;2.58;;;461.00;1305.60;;;;;;5051205;28;20031;-68
2023/04/12 11:21:07;;;;;;;4.60;2.10;;;461.30;1305.60;;;;;;5051062;28;20021;-67
2023/04/12 11:23:35;;;;;;;7.63;4.43;;;461.30;1305.60;;;;;;5050985;28;20024;-68
2023/04/12 11:26:02;;;;;;;6.65;4.10;;;461.40;1331.20;;;;;;5051031;28;20459;-68
2023/04/12 11:28:28;;;;;;;4.80;3.08;;;461.40;1331.20;;;;;;5050894;28;20390;-69
2023/04/12 11:30:55;;;;;;;5.03;3.30;;;461.40;1305.60;;;;;;5051133;28;20024;-67
2023/04/12 11:33:31;;;;;;;8.13;3.88;;;461.40;1331.20;;;;;;5039427;28;20121;-68
2023/04/12 11:35:57;;;;;;;9.73;3.60;;;461.10;1331.20;;;;;;5050029;28;20540;-68
2023/04/12 11:38:22;;;;;;;6.72;2.42;;;461.10;1305.60;;;;;;5050741;28;20029;-68
2023/04/12 11:40:49;;;;;;;7.10;2.90;;;461.00;1356.80;;;;;;5050567;28;20049;-68
2023/04/12 11:43:19;;;;;;;3.45;1.92;;;460.90;1356.80;;;;;;5038639;28;20029;-68
2023/04/12 11:45:45;;;;;;;5.05;3.45;;;460.80;1331.20;;;;;;5050350;28;20027;-68
2023/04/12 11:48:11;;;;;;;4.28;2.72;;;461.10;1356.80;;;;;;5050645;28;20036;-68
2023/04/12 11:50:38;;;;;;;3.53;2.25;;;460.90;1331.20;;;;;;5050482;28;20025;-67
2023/04/12 11:53:11;;;;;;;2.88;1.75;;;460.80;1382.40;;;;;;5050598;28;20499;-66
2023/04/12 11:55:37;;;;;;;6.55;4.07;;;460.80;1331.20;;;;;;5050602;28;20075;-68
2023/04/12 11:58:02;;;;;;;9.40;5.55;;;460.90;1331.20;;;;;;5049755;28;20033;-67
2023/04/12 12:00:30;;;;;;;7.68;2.75;;;461.10;1331.20;;;;;;5050700;28;20782;-66
2023/04/12 12:02:56;;;;;;;3.45;2.10;;;461.00;1356.80;;;;;;5050199;28;20494;-67
2023/04/12 12:05:22;;;;;;;6.45;3.10;;;460.90;1356.80;;;;;;5050475;28;20156;-68
2023/04/12 12:07:48;;;;;;;5.00;2.53;;;461.10;1331.20;;;;;;5049851;28;20108;-67
2023/04/12 12:10:16;;;;;;;3.00;1.90;;;461.00;1305.60;;;;;;5050706;28;20029;-67
2023/04/12 12:12:45;;;;;;;4.15;2.28;;;461.10;1331.20;;;;;;5036457;28;20026;-68
2023/04/12 12:15:13;;;;;;;4.82;2.80;;;461.10;1305.60;;;;;;5049143;28;20054;-67
2023/04/12 12:17:39;;;;;;;8.57;2.47;;;461.00;1305.60;;;;;;5049988;28;20027;-68
2023/04/12 12:20:05;;;;;;;4.85;2.72;;;461.20;1305.60;;;;;;5050289;28;20394;-67